Time;durP1;ratioP1;P1;durP2;ratioP2;P2;SDS_P1;SDS_P2;PMS_P1;PMS_P2;Temp;Humidity;BMP_temperature;BMP_pressure;BME280_temperature;BME280_humidity;BME280_pressure;Samples;Min_cycle;Max_cycle;Signal;HPM_P1;HPM_P2
2022/06/22 00:04:06;;;;;;;3.45;3.15;;;;;;;;;;10222347;28;20060;-78
2022/06/22 00:09:18;;;;;;;5.17;3.67;;;;;;;;;;10227508;28;20048;-75
2022/06/22 00:14:20;;;;;;;3.50;2.95;;;;;;;;;;10228937;28;20826;-76
2022/06/22 00:19:27;;;;;;;3.90;3.50;;;;;;;;;;10229179;28;20803;-77
2022/06/22 00:24:27;;;;;;;3.92;3.50;;;;;;;;;;10213372;28;20051;-77
2022/06/22 00:29:35;;;;;;;3.90;3.50;;;;;;;;;;10241937;28;20126;-80
2022/06/22 00:34:36;;;;;;;3.65;3.35;;;;;;;;;;10252971;28;20114;-77
2022/06/22 00:39:37;;;;;;;4.90;3.40;;;;;;;;;;10244497;28;20054;-76
2022/06/22 00:44:41;;;;;;;5.37;3.53;;;;;;;;;;10235431;28;20292;-78
2022/06/22 00:49:43;;;;;;;3.53;3.22;;;;;;;;;;10230170;28;20083;-75
2022/06/22 00:54:45;;;;;;;4.10;3.80;;;;;;;;;;10238357;28;20052;-76
2022/06/22 00:59:52;;;;;;;4.60;3.60;;;;;;;;;;10248309;28;20115;-83
2022/06/22 01:05:00;;;;;;;3.92;3.28;;;;;;;;;;10229231;28;20051;-78
2022/06/22 01:10:05;;;;;;;3.33;3.00;;;;;;;;;;10237452;28;20058;-77
2022/06/22 01:15:11;;;;;;;3.72;3.42;;;;;;;;;;10238470;28;20047;-78
2022/06/22 01:20:14;;;;;;;3.33;3.08;;;;;;;;;;10227118;28;20059;-78
2022/06/22 01:25:14;;;;;;;3.63;3.33;;;;;;;;;;10219128;28;20046;-76
2022/06/22 01:30:18;;;;;;;3.67;3.37;;;;;;;;;;10225216;28;20047;-82
2022/06/22 01:35:18;;;;;;;3.78;3.40;;;;;;;;;;10227125;28;20652;-76
2022/06/22 01:40:20;;;;;;;3.60;3.30;;;;;;;;;;10225853;28;20054;-77
2022/06/22 01:45:27;;;;;;;3.97;3.55;;;;;;;;;;10225183;28;20759;-78
2022/06/22 01:50:33;;;;;;;3.65;3.35;;;;;;;;;;10215719;28;20466;-79
2022/06/22 01:55:36;;;;;;;6.00;3.70;;;;;;;;;;10249714;28;20074;-78
2022/06/22 02:00:37;;;;;;;3.22;2.97;;;;;;;;;;10223096;28;20090;-78
2022/06/22 02:05:38;;;;;;;3.55;3.25;;;;;;;;;;10233855;28;20466;-76
2022/06/22 02:10:43;;;;;;;4.80;3.57;;;;;;;;;;10219492;28;20059;-77
2022/06/22 02:15:43;;;;;;;3.65;3.35;;;;;;;;;;10224572;28;20051;-76
2022/06/22 02:20:45;;;;;;;4.10;3.63;;;;;;;;;;10220047;28;20054;-77
2022/06/22 02:25:50;;;;;;;3.92;3.47;;;;;;;;;;10235569;28;20059;-85
2022/06/22 02:30:51;;;;;;;3.75;3.45;;;;;;;;;;10244550;28;20063;-76
2022/06/22 02:35:52;;;;;;;4.32;3.90;;;;;;;;;;10229513;28;20498;-76
2022/06/22 02:46:16;;;;;;;3.75;3.40;;;;;;;;;;10240832;28;20051;-77
2022/06/22 02:51:23;;;;;;;3.30;3.10;;;;;;;;;;10226159;28;20406;-76
2022/06/22 02:56:27;;;;;;;3.58;3.00;;;;;;;;;;10219881;28;20126;-78
2022/06/22 03:01:29;;;;;;;4.25;3.33;;;;;;;;;;10225191;28;20047;-78
2022/06/22 03:06:33;;;;;;;3.65;3.33;;;;;;;;;;10220298;28;20074;-77
2022/06/22 03:11:36;;;;;;;3.10;2.80;;;;;;;;;;10222472;28;20075;-77
2022/06/22 03:16:39;;;;;;;4.50;2.80;;;;;;;;;;10227621;28;20138;-76
2022/06/22 03:21:39;;;;;;;4.45;2.80;;;;;;;;;;10205887;28;20063;-78
2022/06/22 03:26:42;;;;;;;4.88;3.47;;;;;;;;;;10226970;28;20119;-78
2022/06/22 03:31:42;;;;;;;;;;;;;;;;;;10223978;28;20134;-85
2022/06/22 03:36:46;;;;;;;3.60;3.28;;;;;;;;;;10227172;28;19965;-78
2022/06/22 03:41:53;;;;;;;3.17;2.83;;;;;;;;;;10229694;28;20052;-76
2022/06/22 03:46:55;;;;;;;4.20;2.97;;;;;;;;;;10221442;28;20079;-78
2022/06/22 03:52:06;;;;;;;3.33;2.90;;;;;;;;;;10225811;28;20446;-78
2022/06/22 03:57:08;;;;;;;3.72;3.10;;;;;;;;;;10229494;28;20506;-76
2022/06/22 04:02:09;;;;;;;3.15;2.85;;;;;;;;;;10240505;28;20380;-77
2022/06/22 04:07:13;;;;;;;5.60;4.00;;;;;;;;;;10236670;28;20055;-77
2022/06/22 04:12:19;;;;;;;4.70;4.10;;;;;;;;;;10226106;28;20107;-82
2022/06/22 04:17:41;;;;;;;4.68;3.63;;;;;;;;;;10227909;28;20098;-79
2022/06/22 04:22:42;;;;;;;4.22;3.72;;;;;;;;;;10243113;28;20063;-79
2022/06/22 04:27:45;;;;;;;5.15;3.55;;;;;;;;;;10231171;28;20051;-75
2022/06/22 04:32:51;;;;;;;5.65;3.67;;;;;;;;;;10241976;28;20043;-81
2022/06/22 04:37:58;;;;;;;4.50;3.60;;;;;;;;;;10244465;28;20497;-74
2022/06/22 04:43:00;;;;;;;5.18;4.15;;;;;;;;;;10230901;28;20263;-81
2022/06/22 04:48:05;;;;;;;4.20;3.70;;;;;;;;;;10241238;28;20133;-76
2022/06/22 04:53:06;;;;;;;3.13;2.83;;;;;;;;;;10237624;28;20059;-76
2022/06/22 04:58:14;;;;;;;3.55;3.10;;;;;;;;;;10232844;28;20047;-75
2022/06/22 05:03:14;;;;;;;3.63;3.28;;;;;;;;;;10241568;28;20059;-76
2022/06/22 05:08:19;;;;;;;3.85;3.47;;;;;;;;;;10230220;28;20047;-79
2022/06/22 05:13:33;;;;;;;3.42;3.13;;;;;;;;;;10230563;28;20837;-75
2022/06/22 05:18:35;;;;;;;3.35;3.03;;;;;;;;;;10230706;28;20499;-76
2022/06/22 05:23:36;;;;;;;5.03;3.63;;;;;;;;;;10230038;28;20058;-76
2022/06/22 05:28:41;;;;;;;3.65;3.30;;;;;;;;;;10229252;28;20058;-76
2022/06/22 05:33:46;;;;;;;4.20;3.50;;;;;;;;;;10230930;28;20092;-76
2022/06/22 05:38:48;;;;;;;4.50;2.88;;;;;;;;;;10224169;28;20062;-75
2022/06/22 05:43:48;;;;;;;3.77;2.60;;;;;;;;;;10225715;28;20105;-76
2022/06/22 05:48:50;;;;;;;4.10;3.00;;;;;;;;;;10224892;28;20061;-76
2022/06/22 05:53:51;;;;;;;4.53;2.88;;;;;;;;;;10219143;29;20308;-77
2022/06/22 05:58:55;;;;;;;3.72;3.40;;;;;;;;;;10240770;28;20566;-75
2022/06/22 06:04:00;;;;;;;3.58;3.28;;;;;;;;;;10242323;28;20063;-78
2022/06/22 06:09:04;;;;;;;3.00;2.80;;;;;;;;;;10254766;28;20110;-76
2022/06/22 06:14:09;;;;;;;3.85;2.80;;;;;;;;;;10246432;28;20052;-76
2022/06/22 06:19:10;;;;;;;3.88;3.30;;;;;;;;;;10259048;28;20104;-80
2022/06/22 06:24:16;;;;;;;6.60;3.55;;;;;;;;;;10249961;28;20439;-78
2022/06/22 06:29:19;;;;;;;3.42;3.10;;;;;;;;;;10251820;28;20388;-81
2022/06/22 06:34:29;;;;;;;3.58;3.28;;;;;;;;;;10254632;28;20044;-77
2022/06/22 06:39:32;;;;;;;4.32;3.10;;;;;;;;;;10258347;28;20058;-76
2022/06/22 06:44:37;;;;;;;4.05;3.17;;;;;;;;;;10263369;28;20107;-75
2022/06/22 06:49:43;;;;;;;2.90;2.47;;;;;;;;;;10261555;28;20067;-75
2022/06/22 06:54:46;;;;;;;3.83;3.10;;;;;;;;;;10234661;28;20068;-76
2022/06/22 06:59:48;;;;;;;3.35;2.90;;;;;;;;;;10229560;28;20087;-79
2022/06/22 07:04:49;;;;;;;3.25;2.90;;;;;;;;;;10229306;28;20059;-77
2022/06/22 07:09:51;;;;;;;3.28;2.78;;;;;;;;;;10239296;28;20391;-74
2022/06/22 07:14:51;;;;;;;3.77;3.17;;;;;;;;;;10230136;28;20498;-76
2022/06/22 07:19:56;;;;;;;3.40;2.93;;;;;;;;;;10236643;28;20047;-77
2022/06/22 07:25:05;;;;;;;4.40;3.15;;;;;;;;;;10227721;28;20375;-75
2022/06/22 07:30:26;;;;;;;5.22;3.05;;;;;;;;;;10228182;28;20590;-76
2022/06/22 07:35:34;;;;;;;3.70;2.92;;;;;;;;;;10233847;28;20051;-77
2022/06/22 07:40:35;;;;;;;5.45;3.60;;;;;;;;;;10241049;28;20098;-76
2022/06/22 07:45:35;;;;;;;3.72;3.15;;;;;;;;;;10237055;28;20556;-78
2022/06/22 07:50:41;;;;;;;3.50;3.20;;;;;;;;;;10230743;28;20058;-76
2022/06/22 07:55:47;;;;;;;4.75;3.63;;;;;;;;;;10229607;28;20043;-76
2022/06/22 08:00:52;;;;;;;5.72;3.55;;;;;;;;;;10218641;28;20059;-75
2022/06/22 08:05:55;;;;;;;4.63;3.10;;;;;;;;;;10229523;28;20043;-76
2022/06/22 08:11:03;;;;;;;4.18;3.45;;;;;;;;;;10234417;28;20055;-78
2022/06/22 08:16:06;;;;;;;4.22;3.80;;;;;;;;;;10240659;28;20135;-76
2022/06/22 08:21:11;;;;;;;4.93;3.60;;;;;;;;;;10240124;28;20494;-78
2022/06/22 08:26:16;;;;;;;5.85;3.80;;;;;;;;;;10233503;28;20779;-76
2022/06/22 08:31:17;;;;;;;4.03;3.38;;;;;;;;;;10237186;28;20058;-76
2022/06/22 08:36:26;;;;;;;4.82;3.55;;;;;;;;;;10222025;28;20058;-78
2022/06/22 08:41:41;;;;;;;5.35;3.72;;;;;;;;;;10236903;28;20502;-77
2022/06/22 08:46:44;;;;;;;5.88;3.83;;;;;;;;;;10228689;28;20044;-77
2022/06/22 08:51:45;;;;;;;3.53;3.22;;;;;;;;;;10223603;28;20059;-76
2022/06/22 08:56:58;;;;;;;5.97;3.63;;;;;;;;;;10228358;28;20047;-77
2022/06/22 09:02:17;;;;;;;5.47;3.60;;;;;;;;;;10226241;28;20598;-76
2022/06/22 09:07:36;;;;;;;5.32;3.65;;;;;;;;;;10233481;28;20055;-76
2022/06/22 09:12:48;;;;;;;5.63;3.88;;;;;;;;;;10241439;28;20495;-76
2022/06/22 09:17:48;;;;;;;;;;;;;;;;;;10247220;28;20138;-75
2022/06/22 09:22:52;;;;;;;3.83;3.50;;;;;;;;;;10238498;28;20370;-76
2022/06/22 09:27:58;;;;;;;3.50;3.20;;;;;;;;;;10242165;28;20407;-78
2022/06/22 09:33:08;;;;;;;3.92;3.50;;;;;;;;;;10244226;28;20043;-76
2022/06/22 09:38:09;;;;;;;5.68;3.90;;;;;;;;;;10226668;28;20426;-76
2022/06/22 09:43:29;;;;;;;7.07;4.07;;;;;;;;;;10228783;28;20063;-76
2022/06/22 09:48:47;;;;;;;3.58;3.28;;;;;;;;;;10226934;28;20716;-76
2022/06/22 09:59:57;;;;;;;6.22;4.43;;;;;;;;;;10200734;28;20529;-77
2022/06/22 10:05:08;;;;;;;5.00;4.18;;;;;;;;;;10218977;28;20062;-76
2022/06/22 10:10:14;;;;;;;6.53;4.10;;;;;;;;;;10229230;28;20138;-76
2022/06/22 10:15:32;;;;;;;4.63;3.95;;;;;;;;;;10227075;28;20048;-78
2022/06/22 10:20:40;;;;;;;9.23;6.65;;;;;;;;;;10232098;28;20142;-77
2022/06/22 10:25:47;;;;;;;6.88;3.90;;;;;;;;;;10219089;28;20039;-75
2022/06/22 10:31:00;;;;;;;7.35;6.10;;;;;;;;;;10222387;28;20051;-77
2022/06/22 10:36:09;;;;;;;4.60;4.20;;;;;;;;;;10241372;28;20464;-77
2022/06/22 10:46:45;;;;;;;6.33;4.43;;;;;;;;;;10230027;28;20057;-77
2022/06/22 10:51:49;;;;;;;5.53;4.25;;;;;;;;;;10225502;28;20113;-79
2022/06/22 10:57:08;;;;;;;4.30;3.85;;;;;;;;;;10219264;28;20058;-76
2022/06/22 11:02:27;;;;;;;6.63;3.88;;;;;;;;;;10230998;28;20139;-76
2022/06/22 11:07:33;;;;;;;4.30;4.00;;;;;;;;;;10225528;28;20059;-76
2022/06/22 11:12:43;;;;;;;4.78;3.75;;;;;;;;;;10236637;28;20459;-76
2022/06/22 11:17:56;;;;;;;6.30;4.18;;;;;;;;;;10252838;28;20047;-76
2022/06/22 11:23:00;;;;;;;3.35;3.03;;;;;;;;;;10247163;28;20047;-77
2022/06/22 11:33:40;;;;;;;4.53;3.35;;;;;;;;;;10240085;28;20509;-78
2022/06/22 11:38:56;;;;;;;5.45;3.85;;;;;;;;;;10236110;28;20047;-75
2022/06/22 11:43:56;;;;;;;5.30;3.72;;;;;;;;;;10239231;28;20055;-78
2022/06/22 11:49:23;;;;;;;4.50;4.10;;;;;;;;;;10228358;28;20146;-75
2022/06/22 11:54:29;;;;;;;4.55;4.13;;;;;;;;;;10235230;28;20067;-76
2022/06/22 11:59:48;;;;;;;27.95;19.27;;;;;;;;;;10243537;28;20051;-76
2022/06/22 12:05:09;;;;;;;4.70;3.80;;;;;;;;;;10235478;28;20644;-75
2022/06/22 12:10:24;;;;;;;4.38;3.92;;;;;;;;;;10231845;28;20059;-76
2022/06/22 12:15:31;;;;;;;4.30;3.38;;;;;;;;;;10222282;28;20102;-77
2022/06/22 12:20:31;;;;;;;3.97;3.47;;;;;;;;;;10243587;28;20059;-76
2022/06/22 12:25:42;;;;;;;6.83;3.10;;;;;;;;;;10278258;28;20046;-76
2022/06/22 12:30:51;;;;;;;4.88;3.85;;;;;;;;;;10266627;28;20058;-77
2022/06/22 12:36:18;;;;;;;4.82;4.40;;;;;;;;;;10253567;28;20046;-75
2022/06/22 12:41:30;;;;;;;4.40;4.10;;;;;;;;;;10244531;28;20111;-76
2022/06/22 12:46:33;;;;;;;4.10;3.70;;;;;;;;;;10265455;28;20043;-79
2022/06/22 12:51:41;;;;;;;4.78;3.88;;;;;;;;;;10275935;28;20126;-76
2022/06/22 12:56:53;;;;;;;4.72;3.97;;;;;;;;;;10273800;28;20091;-80
2022/06/22 13:01:54;;;;;;;6.38;4.75;;;;;;;;;;10271568;28;20082;-79
2022/06/22 13:06:57;;;;;;;5.60;3.70;;;;;;;;;;10280762;28;20171;-76
2022/06/22 13:11:59;;;;;;;4.65;4.10;;;;;;;;;;10269970;28;20071;-76
2022/06/22 13:16:59;;;;;;;;;;;;;;;;;;10257256;28;20047;-77
2022/06/22 13:22:02;;;;;;;24.70;22.20;;;;;;;;;;10230525;28;19926;-78
2022/06/22 13:27:14;;;;;;;5.13;4.15;;;;;;;;;;10245241;28;20059;-77
2022/06/22 13:32:14;;;;;;;;;;;;;;;;;;10235037;28;20569;-77
2022/06/22 13:37:15;;;;;;;4.13;3.83;;;;;;;;;;10241170;28;19918;-77
2022/06/22 13:42:21;;;;;;;4.50;4.20;;;;;;;;;;10245620;28;20287;-78
2022/06/22 13:47:40;;;;;;;4.72;4.00;;;;;;;;;;10246548;28;20174;-78
2022/06/22 13:52:42;;;;;;;4.75;4.10;;;;;;;;;;10239191;28;20059;-78
2022/06/22 13:57:47;;;;;;;4.50;4.10;;;;;;;;;;10237623;28;20510;-77
2022/06/22 14:02:47;;;;;;;4.90;4.20;;;;;;;;;;10235494;28;20083;-76
2022/06/22 14:08:09;;;;;;;4.70;4.23;;;;;;;;;;10230175;28;20106;-78
2022/06/22 14:13:18;;;;;;;4.45;4.05;;;;;;;;;;10229484;28;20043;-76
2022/06/22 14:18:27;;;;;;;13.75;9.80;;;;;;;;;;10232051;28;20410;-78
2022/06/22 14:23:27;;;;;;;5.85;5.22;;;;;;;;;;10227024;28;20065;-76
2022/06/22 14:28:28;;;;;;;5.10;4.60;;;;;;;;;;10237766;28;20053;-77
2022/06/22 14:33:33;;;;;;;6.10;5.30;;;;;;;;;;10234261;28;20071;-78
2022/06/22 14:39:00;;;;;;;6.07;5.35;;;;;;;;;;10227434;28;20051;-77
2022/06/22 14:44:12;;;;;;;7.88;6.40;;;;;;;;;;10209075;28;20063;-77
2022/06/22 14:49:42;;;;;;;13.63;10.85;;;;;;;;;;10222142;28;20051;-76
2022/06/22 14:54:45;;;;;;;8.95;8.10;;;;;;;;;;10195663;28;20214;-78
2022/06/22 15:00:05;;;;;;;10.93;8.52;;;;;;;;;;10227268;28;20047;-77
2022/06/22 15:05:33;;;;;;;8.60;7.70;;;;;;;;;;10229742;28;21375;-78
2022/06/22 15:10:50;;;;;;;10.05;8.38;;;;;;;;;;10208763;28;20051;-77
2022/06/22 15:15:55;;;;;;;7.65;6.85;;;;;;;;;;10225177;28;20039;-77
2022/06/22 15:20:58;;;;;;;8.35;6.57;;;;;;;;;;10227526;28;20363;-77
2022/06/22 15:26:15;;;;;;;7.93;6.00;;;;;;;;;;10230299;28;20476;-77
2022/06/22 15:31:15;;;;;;;7.88;6.65;;;;;;;;;;10226723;28;20051;-76
2022/06/22 15:36:29;;;;;;;9.43;7.10;;;;;;;;;;10227297;28;20055;-76
2022/06/22 15:41:54;;;;;;;10.02;7.68;;;;;;;;;;10220356;29;20067;-75
2022/06/22 15:47:13;;;;;;;8.50;7.05;;;;;;;;;;10220894;28;20059;-74
2022/06/22 15:52:21;;;;;;;9.30;7.90;;;;;;;;;;10225578;28;20051;-74
2022/06/22 15:57:22;;;;;;;8.10;6.55;;;;;;;;;;10226989;28;20040;-73
2022/06/22 16:02:22;;;;;;;10.05;6.90;;;;;;;;;;10214278;28;20043;-73
2022/06/22 16:07:29;;;;;;;10.93;6.97;;;;;;;;;;10227608;28;26396;-73
2022/06/22 16:18:01;;;;;;;8.70;6.68;;;;;;;;;;10232171;28;20071;-73
2022/06/22 16:23:05;;;;;;;10.27;7.55;;;;;;;;;;10217375;28;20058;-72
2022/06/22 16:28:09;;;;;;;8.23;7.43;;;;;;;;;;10233830;28;20075;-72
2022/06/22 16:33:12;;;;;;;9.07;7.07;;;;;;;;;;10234708;28;20059;-72
2022/06/22 16:38:13;;;;;;;9.73;7.22;;;;;;;;;;10239456;28;20062;-73
2022/06/22 16:43:22;;;;;;;10.48;6.90;;;;;;;;;;10230987;28;20170;-73
2022/06/22 16:48:27;;;;;;;7.63;6.22;;;;;;;;;;10224437;28;20725;-79
2022/06/22 16:53:40;;;;;;;9.75;7.00;;;;;;;;;;10237532;28;20110;-76
2022/06/22 16:58:41;;;;;;;7.95;7.07;;;;;;;;;;10228374;28;20182;-78
2022/06/22 17:03:45;;;;;;;9.30;7.27;;;;;;;;;;10216418;28;20478;-77
2022/06/22 17:08:55;;;;;;;9.98;7.30;;;;;;;;;;10234459;28;20388;-75
2022/06/22 17:13:55;;;;;;;9.88;6.85;;;;;;;;;;10214618;28;20119;-76
2022/06/22 17:18:57;;;;;;;9.20;6.82;;;;;;;;;;10223553;28;20052;-75
2022/06/22 17:23:57;;;;;;;9.98;7.25;;;;;;;;;;10219398;28;20479;-75
2022/06/22 17:29:01;;;;;;;13.38;11.35;;;;;;;;;;10223258;28;20059;-77
2022/06/22 17:34:13;;;;;;;10.98;8.30;;;;;;;;;;10229414;28;20065;-75
2022/06/22 17:39:32;;;;;;;10.35;8.15;;;;;;;;;;10232671;28;20047;-81
2022/06/22 17:44:51;;;;;;;13.35;9.00;;;;;;;;;;10233388;28;20594;-78
2022/06/22 17:49:51;;;;;;;12.50;10.38;;;;;;;;;;10237009;28;20055;-75
2022/06/22 17:54:58;;;;;;;9.15;8.20;;;;;;;;;;10227658;28;20056;-77
2022/06/22 18:00:17;;;;;;;9.40;8.45;;;;;;;;;;10232036;28;20418;-78
2022/06/22 18:05:20;;;;;;;9.85;7.63;;;;;;;;;;10236093;28;20047;-77
2022/06/22 18:10:21;;;;;;;8.63;7.72;;;;;;;;;;10233902;28;20062;-78
2022/06/22 18:15:34;;;;;;;10.02;9.02;;;;;;;;;;10226952;28;20051;-79
2022/06/22 18:20:39;;;;;;;11.25;8.15;;;;;;;;;;10229791;28;20052;-77
2022/06/22 18:25:44;;;;;;;12.13;9.18;;;;;;;;;;10225310;28;20134;-75
2022/06/22 18:30:50;;;;;;;10.80;8.52;;;;;;;;;;10243283;28;20065;-77
2022/06/22 18:35:51;;;;;;;10.82;9.60;;;;;;;;;;10240245;28;20047;-75
2022/06/22 18:46:25;;;;;;;10.13;9.07;;;;;;;;;;10224682;28;20126;-75
2022/06/22 18:51:25;;;;;;;10.50;8.63;;;;;;;;;;10231673;28;20428;-76
2022/06/22 18:56:26;;;;;;;11.17;9.17;;;;;;;;;;10225575;28;20051;-77
2022/06/22 19:01:29;;;;;;;10.65;9.55;;;;;;;;;;10229666;28;20406;-77
2022/06/22 19:06:32;;;;;;;10.05;8.52;;;;;;;;;;10219193;28;20113;-77
2022/06/22 19:11:35;;;;;;;11.80;9.35;;;;;;;;;;10215412;28;20060;-75
2022/06/22 19:16:44;;;;;;;12.90;9.65;;;;;;;;;;10217955;28;20051;-78
2022/06/22 19:21:50;;;;;;;16.45;12.48;;;;;;;;;;10217676;28;20066;-77
2022/06/22 19:27:12;;;;;;;12.50;9.55;;;;;;;;;;10223332;28;20135;-78
2022/06/22 19:32:36;;;;;;;10.70;9.43;;;;;;;;;;10229621;28;20055;-77
2022/06/22 19:37:46;;;;;;;11.48;9.13;;;;;;;;;;10231848;28;20110;-78
2022/06/22 19:43:22;;;;;;;12.98;10.57;;;;;;;;;;10228003;28;20474;-76
2022/06/22 19:48:28;;;;;;;15.07;9.40;;;;;;;;;;10220742;28;20043;-78
2022/06/22 19:53:34;;;;;;;12.35;9.93;;;;;;;;;;10223687;28;20107;-79
2022/06/22 19:58:35;;;;;;;10.07;9.02;;;;;;;;;;10226970;28;20048;-77
2022/06/22 20:03:52;;;;;;;10.85;9.38;;;;;;;;;;10236864;28;20059;-84
2022/06/22 20:08:55;;;;;;;11.82;10.02;;;;;;;;;;10232257;28;20123;-80
2022/06/22 20:14:04;;;;;;;12.98;9.35;;;;;;;;;;10243304;28;20094;-84
2022/06/22 20:19:07;;;;;;;12.73;9.38;;;;;;;;;;10241165;28;20528;-82
2022/06/22 20:24:33;;;;;;;12.57;9.77;;;;;;;;;;10224735;28;20794;-77
2022/06/22 20:29:34;;;;;;;10.80;9.20;;;;;;;;;;10219168;28;20539;-78
2022/06/22 20:34:37;;;;;;;16.10;11.02;;;;;;;;;;10267318;28;20039;-78
2022/06/22 20:39:41;;;;;;;12.20;10.10;;;;;;;;;;10244222;28;20075;-78
2022/06/22 20:44:43;;;;;;;16.33;11.77;;;;;;;;;;10256059;28;20142;-77
2022/06/22 20:49:52;;;;;;;13.88;10.57;;;;;;;;;;10236600;28;20053;-79
2022/06/22 20:54:57;;;;;;;12.65;10.43;;;;;;;;;;10224714;28;20054;-79
2022/06/22 21:00:02;;;;;;;13.23;10.43;;;;;;;;;;10235039;28;20507;-79
2022/06/22 21:05:03;;;;;;;13.52;10.70;;;;;;;;;;10247160;28;20082;-78
2022/06/22 21:10:07;;;;;;;12.98;10.55;;;;;;;;;;10241616;28;20159;-79
2022/06/22 21:15:10;;;;;;;12.57;11.15;;;;;;;;;;10230053;29;20095;-79
2022/06/22 21:20:30;;;;;;;11.57;10.38;;;;;;;;;;10226543;28;20120;-78
2022/06/22 21:25:31;;;;;;;13.27;10.32;;;;;;;;;;10218071;29;20674;-78
2022/06/22 21:30:37;;;;;;;11.48;9.90;;;;;;;;;;10218917;28;20192;-79
2022/06/22 21:35:47;;;;;;;15.85;11.40;;;;;;;;;;10222100;28;20109;-81
2022/06/22 21:40:54;;;;;;;14.07;10.95;;;;;;;;;;10229263;28;20531;-78
2022/06/22 21:46:04;;;;;;;13.88;11.93;;;;;;;;;;10230201;28;20046;-82
2022/06/22 21:51:22;;;;;;;12.32;9.70;;;;;;;;;;10223093;28;20040;-80
2022/06/22 21:56:33;;;;;;;14.20;10.73;;;;;;;;;;10229515;28;20044;-80
2022/06/22 22:01:36;;;;;;;12.15;9.88;;;;;;;;;;10214128;28;20090;-79
2022/06/22 22:06:58;;;;;;;12.25;10.32;;;;;;;;;;10223185;28;20052;-79
2022/06/22 22:12:11;;;;;;;15.15;12.10;;;;;;;;;;10239873;28;20134;-80
2022/06/22 22:17:17;;;;;;;14.20;11.35;;;;;;;;;;10233511;28;20059;-80
2022/06/22 22:22:21;;;;;;;16.45;12.60;;;;;;;;;;10231683;28;20058;-86
2022/06/22 22:27:29;;;;;;;13.48;11.25;;;;;;;;;;10238722;28;20048;-79
2022/06/22 22:32:33;;;;;;;13.75;11.25;;;;;;;;;;10251334;28;20051;-79
2022/06/22 22:37:34;;;;;;;12.82;10.88;;;;;;;;;;10268107;28;20027;-82
2022/06/22 22:42:37;;;;;;;14.63;12.55;;;;;;;;;;10279858;28;20084;-82
2022/06/22 22:47:40;;;;;;;16.63;13.80;;;;;;;;;;10224514;28;20590;-79
2022/06/22 22:53:03;;;;;;;16.73;13.65;;;;;;;;;;10239216;28;20858;-79
2022/06/22 22:58:04;;;;;;;;;;;;;;;;;;10217627;28;20043;-77
2022/06/22 23:03:14;;;;;;;17.67;14.07;;;;;;;;;;10222012;28;20029;-78
2022/06/22 23:08:19;;;;;;;22.17;16.13;;;;;;;;;;10225733;28;20091;-78
2022/06/22 23:13:28;;;;;;;17.25;14.68;;;;;;;;;;10222850;28;20058;-79
2022/06/22 23:18:29;;;;;;;19.35;14.48;;;;;;;;;;10226459;28;20044;-77
2022/06/22 23:23:30;;;;;;;14.40;12.80;;;;;;;;;;10210147;28;20051;-78
2022/06/22 23:28:35;;;;;;;18.20;14.23;;;;;;;;;;10242331;28;20050;-79
2022/06/22 23:33:40;;;;;;;18.13;15.23;;;;;;;;;;10234519;28;20046;-81
2022/06/22 23:38:42;;;;;;;18.98;15.35;;;;;;;;;;10234156;28;20056;-80
2022/06/22 23:43:47;;;;;;;16.23;13.98;;;;;;;;;;10229436;28;20506;-79
2022/06/22 23:49:06;;;;;;;18.20;14.15;;;;;;;;;;10217743;28;20157;-80
2022/06/22 23:54:18;;;;;;;17.70;15.18;;;;;;;;;;10224206;28;20049;-81
2022/06/22 23:59:24;;;;;;;16.47;14.53;;;;;;;;;;10213300;28;20062;-78
